createdAt,value
2019-01-16T00:00:26.587Z,9.02
2019-01-16T00:03:04.585Z,9.01
2019-01-16T00:05:52.674Z,9.03
2019-01-16T00:08:24.688Z,9.02
2019-01-16T00:10:56.724Z,9.03
2019-01-16T00:13:45.016Z,9.04
2019-01-16T00:16:19.718Z,9.05
2019-01-16T00:18:55.317Z,9.06
2019-01-16T00:21:30.385Z,9.07
2019-01-16T00:24:18.675Z,9.07
2019-01-16T00:26:50.714Z,9.09
2019-01-16T00:29:23.020Z,9.10
2019-01-16T00:32:00.493Z,9.11
2019-01-16T00:34:48.857Z,9.12
2019-01-16T00:37:23.559Z,9.13
2019-01-16T00:40:04.732Z,9.14
2019-01-16T00:42:39.399Z,9.16
2019-01-16T00:45:17.837Z,9.19
2019-01-16T00:47:52.803Z,9.20
2019-01-16T00:50:30.551Z,9.21
2019-01-16T00:53:11.613Z,9.23
2019-01-16T00:55:52.815Z,9.26
2019-01-16T00:58:41.081Z,9.26
2019-01-16T01:01:19.316Z,9.26
2019-01-16T01:03:51.348Z,9.27
2019-01-16T01:06:23.376Z,9.29
2019-01-16T01:09:11.541Z,9.31
2019-01-16T01:11:43.558Z,9.28
2019-01-16T01:14:15.594Z,9.28
2019-01-16T01:17:03.910Z,9.28
2019-01-16T01:19:44.752Z,9.26
2019-01-16T01:22:16.773Z,9.27
2019-01-16T01:24:51.502Z,9.26
2019-01-16T01:27:23.527Z,9.26
2019-01-16T01:29:55.547Z,9.26
2019-01-16T01:32:27.568Z,9.26
2019-01-16T01:35:15.912Z,9.26
2019-01-16T01:37:47.930Z,9.24
2019-01-16T01:40:32.195Z,9.25
2019-01-16T01:43:07.194Z,9.24
2019-01-16T01:45:45.154Z,9.24
2019-01-16T01:48:17.197Z,9.23
2019-01-16T01:50:49.212Z,9.23
2019-01-16T01:53:30.432Z,9.24
2019-01-16T01:56:17.670Z,9.22
2019-01-16T01:59:05.169Z,9.20
2019-01-16T02:01:37.537Z,9.18
2019-01-16T02:04:12.881Z,9.16
2019-01-16T02:06:44.901Z,9.15
2019-01-16T02:09:17.010Z,9.14
2019-01-16T02:11:52.142Z,9.12
2019-01-16T02:14:40.600Z,9.12
2019-01-16T02:17:24.595Z,9.08
2019-01-16T02:19:56.634Z,9.07
2019-01-16T02:22:28.651Z,9.07
2019-01-16T02:25:06.681Z,9.06
2019-01-16T02:27:41.920Z,9.05
2019-01-16T02:30:21.921Z,9.04
2019-01-16T02:33:10.203Z,9.03
2019-01-16T02:35:54.200Z,9.01
2019-01-16T02:38:26.215Z,9.02
2019-01-16T02:41:01.023Z,9.01
2019-01-16T02:43:33.109Z,9.00
2019-01-16T02:46:11.435Z,9.00
2019-01-16T02:48:56.458Z,8.96
2019-01-16T02:51:46.687Z,8.93
2019-01-16T02:54:18.710Z,8.90
2019-01-16T02:56:56.314Z,8.88
2019-01-16T02:59:28.366Z,8.89
2019-01-16T03:02:03.035Z,8.89
2019-01-16T03:04:35.445Z,8.90
2019-01-16T03:07:13.138Z,8.92
2019-01-16T03:09:51.231Z,8.93
2019-01-16T03:12:29.001Z,8.94
2019-01-16T03:15:03.746Z,8.94
2019-01-16T03:17:51.931Z,8.95
2019-01-16T03:20:23.958Z,8.95
2019-01-16T03:23:07.974Z,8.96
2019-01-16T03:25:39.988Z,8.97
2019-01-16T03:28:12.019Z,8.99
2019-01-16T03:30:50.205Z,8.99
2019-01-16T03:33:25.254Z,9.00
2019-01-16T03:36:00.344Z,9.01
2019-01-16T03:38:35.476Z,9.02
2019-01-16T03:41:07.845Z,9.03
2019-01-16T03:43:57.915Z,9.06
2019-01-16T03:46:41.883Z,9.06
2019-01-16T03:49:14.094Z,9.06
2019-01-16T03:51:46.597Z,9.07
2019-01-16T03:54:35.291Z,9.07
2019-01-16T03:57:07.337Z,9.08
2019-01-16T03:59:39.442Z,9.10
2019-01-16T04:02:23.496Z,9.12
2019-01-16T04:04:55.565Z,9.12
2019-01-16T04:07:39.489Z,9.14
2019-01-16T04:10:19.708Z,9.13
2019-01-16T04:12:54.126Z,9.12
2019-01-16T04:15:26.158Z,9.13
2019-01-16T04:18:09.994Z,9.15
2019-01-16T04:20:54.222Z,9.15
2019-01-16T04:23:26.237Z,9.15
2019-01-16T04:26:14.674Z,9.15
2019-01-16T04:28:46.691Z,9.14
2019-01-16T04:31:24.654Z,9.15
2019-01-16T04:34:05.591Z,9.15
2019-01-16T04:36:37.616Z,9.15
2019-01-16T04:39:10.365Z,9.17
2019-01-16T04:42:00.676Z,9.17
2019-01-16T04:44:41.709Z,9.15
2019-01-16T04:47:29.358Z,9.15
2019-01-16T04:50:01.407Z,9.15
2019-01-16T04:52:36.366Z,9.14
2019-01-16T04:55:11.104Z,9.15
2019-01-16T04:57:43.135Z,9.16
2019-01-16T05:00:24.542Z,9.15
2019-01-16T05:03:13.068Z,9.15
2019-01-16T05:06:00.392Z,9.15
2019-01-16T05:08:47.350Z,9.14
2019-01-16T05:11:35.418Z,9.12
2019-01-16T05:14:07.441Z,9.13
2019-01-16T05:16:51.960Z,9.14
2019-01-16T05:19:40.367Z,9.14
2019-01-16T05:22:12.658Z,9.14
2019-01-16T05:24:44.751Z,9.15
2019-01-16T05:27:20.083Z,9.15
2019-01-16T05:30:01.778Z,9.16
2019-01-16T05:32:36.481Z,9.17
2019-01-16T05:35:14.428Z,9.18
2019-01-16T05:37:46.449Z,9.19
2019-01-16T05:40:18.848Z,9.21
2019-01-16T05:42:50.868Z,9.22
2019-01-16T05:45:31.821Z,9.22
2019-01-16T05:48:15.425Z,9.23
2019-01-16T05:50:47.466Z,9.23
2019-01-16T05:53:22.416Z,9.25
2019-01-16T05:56:00.143Z,9.25
2019-01-16T05:58:32.172Z,9.24
2019-01-16T06:01:07.170Z,9.25
2019-01-16T06:03:39.218Z,9.27
2019-01-16T06:06:27.477Z,9.28
2019-01-16T06:08:59.499Z,9.28
2019-01-16T06:11:47.915Z,9.30
2019-01-16T06:14:19.950Z,9.32
2019-01-16T06:16:55.154Z,9.33
2019-01-16T06:19:27.178Z,9.34
2019-01-16T06:22:02.111Z,9.33
2019-01-16T06:24:34.127Z,9.33
2019-01-16T06:27:21.404Z,9.33
2019-01-16T06:29:53.432Z,9.33
2019-01-16T06:32:43.706Z,9.34
2019-01-16T06:35:15.734Z,9.33
2019-01-16T06:37:53.496Z,9.33
2019-01-16T06:40:25.535Z,9.34
2019-01-16T06:42:57.571Z,9.33
2019-01-16T06:45:30.380Z,9.34
2019-01-16T06:48:08.213Z,9.35
2019-01-16T06:50:43.189Z,9.33
2019-01-16T06:53:31.657Z,9.33
2019-01-16T06:56:21.715Z,9.32
2019-01-16T06:58:53.749Z,9.32
2019-01-16T07:01:42.056Z,9.32
2019-01-16T07:04:17.082Z,9.32
2019-01-16T07:07:05.188Z,9.32
2019-01-16T07:09:46.840Z,9.32
2019-01-16T07:12:35.047Z,9.32
2019-01-16T07:15:20.576Z,9.32
2019-01-16T07:17:52.610Z,9.32
2019-01-16T07:20:39.675Z,9.32
2019-01-16T07:23:17.153Z,9.31
2019-01-16T07:26:05.210Z,9.32
2019-01-16T07:28:43.215Z,9.32
2019-01-16T07:31:17.903Z,9.31
2019-01-16T07:34:01.925Z,9.33
2019-01-16T07:36:33.955Z,9.33
2019-01-16T07:39:26.863Z,9.34
2019-01-16T07:41:58.886Z,9.35
2019-01-16T07:44:31.162Z,9.34
2019-01-16T07:47:12.041Z,9.35
2019-01-16T07:50:02.156Z,9.36
2019-01-16T07:52:34.188Z,9.37
2019-01-16T07:55:25.212Z,9.36
2019-01-16T07:58:05.961Z,9.39
2019-01-16T08:00:43.740Z,9.38
2019-01-16T08:03:41.396Z,9.39
2019-01-16T08:06:19.409Z,9.37
2019-01-16T08:09:06.748Z,9.38
2019-01-16T08:11:41.198Z,9.39
2019-01-16T08:14:15.905Z,9.39
2019-01-16T08:17:04.153Z,9.41
2019-01-16T08:19:54.512Z,9.42
2019-01-16T08:22:29.317Z,9.42
2019-01-16T08:25:01.338Z,9.43
2019-01-16T08:28:01.103Z,9.43
2019-01-16T08:30:33.121Z,9.44
2019-01-16T08:33:21.563Z,9.44
2019-01-16T08:36:02.553Z,9.44
2019-01-16T08:38:40.368Z,9.44
2019-01-16T08:41:29.035Z,9.45
2019-01-16T08:44:16.309Z,9.46
2019-01-16T08:46:51.002Z,9.46
2019-01-16T08:49:39.099Z,9.44
2019-01-16T08:52:23.271Z,9.44
2019-01-16T08:55:04.726Z,9.45
2019-01-16T08:57:48.877Z,9.46
2019-01-16T09:00:26.777Z,9.47
2019-01-16T09:03:15.240Z,9.49
2019-01-16T09:06:03.509Z,9.50
2019-01-16T09:08:51.676Z,9.49
2019-01-16T09:11:39.435Z,9.49
2019-01-16T09:14:20.413Z,9.51
2019-01-16T09:17:08.752Z,9.52
2019-01-16T09:19:41.067Z,9.54
2019-01-16T09:22:19.264Z,9.55
2019-01-16T09:24:51.315Z,9.57
2019-01-16T09:27:27.441Z,9.60
2019-01-16T09:30:17.991Z,9.62
2019-01-16T09:33:02.291Z,9.34
2019-01-16T09:35:49.846Z,9.63
2019-01-16T09:38:37.963Z,9.64
2019-01-16T09:41:16.141Z,9.64
2019-01-16T09:44:04.521Z,9.66
2019-01-16T09:46:42.503Z,9.64
2019-01-16T09:49:23.514Z,9.65
2019-01-16T09:51:55.542Z,9.64
2019-01-16T09:54:43.893Z,9.66
2019-01-16T09:57:15.932Z,9.68
2019-01-16T09:59:47.974Z,9.67
2019-01-16T10:02:36.440Z,9.68
2019-01-16T10:05:26.589Z,9.68
2019-01-16T10:07:58.621Z,9.67
2019-01-16T10:10:42.865Z,9.66
2019-01-16T10:13:21.033Z,9.65
2019-01-16T10:16:09.370Z,9.64
2019-01-16T10:18:57.506Z,9.63
2019-01-16T10:21:45.940Z,9.18
2019-01-16T10:24:20.890Z,9.61
2019-01-16T10:27:01.984Z,9.60
2019-01-16T10:29:36.976Z,9.59
2019-01-16T10:32:27.341Z,9.34
2019-01-16T10:35:00.477Z,9.56
2019-01-16T10:37:32.709Z,9.53
2019-01-16T10:40:07.861Z,9.56
2019-01-16T10:42:54.949Z,9.55
2019-01-16T10:45:27.021Z,9.54
2019-01-16T10:48:16.068Z,9.53
2019-01-16T10:50:48.327Z,9.56
2019-01-16T10:53:23.420Z,9.55
2019-01-16T10:56:13.752Z,9.53
2019-01-16T10:59:02.195Z,9.50
2019-01-16T11:01:34.219Z,9.49
2019-01-16T11:04:22.762Z,9.50
2019-01-16T11:07:11.212Z,9.52
2019-01-16T11:09:59.360Z,9.51
2019-01-16T11:12:47.737Z,9.52
2019-01-16T11:15:35.856Z,9.53
2019-01-16T11:18:14.079Z,9.53
2019-01-16T11:21:01.215Z,9.55
2019-01-16T11:23:51.492Z,9.56
2019-01-16T11:26:26.254Z,9.55
2019-01-16T11:29:10.114Z,9.54
2019-01-16T11:31:42.134Z,9.53
2019-01-16T11:34:30.568Z,9.53
2019-01-16T11:37:02.608Z,9.52
2019-01-16T11:39:46.369Z,9.52
2019-01-16T11:42:34.828Z,9.52
2019-01-16T11:45:10.092Z,9.52
2019-01-16T11:47:42.130Z,9.53
2019-01-16T11:50:25.910Z,9.54
2019-01-16T11:52:58.008Z,9.56
2019-01-16T11:55:48.018Z,9.55
2019-01-16T11:58:20.058Z,9.53
2019-01-16T12:01:01.111Z,9.30
2019-01-16T12:03:39.153Z,9.53
2019-01-16T12:06:11.180Z,9.27
2019-01-16T12:08:49.307Z,9.53
2019-01-16T12:11:33.414Z,9.53
2019-01-16T12:14:05.480Z,9.54
2019-01-16T12:16:43.182Z,9.55
2019-01-16T12:19:15.227Z,9.57
2019-01-16T12:21:59.497Z,9.58
2019-01-16T12:24:43.587Z,9.59
2019-01-16T12:27:30.897Z,9.60
2019-01-16T12:30:12.102Z,9.62
2019-01-16T12:32:50.192Z,9.65
2019-01-16T12:35:38.909Z,9.65
2019-01-16T12:38:27.924Z,9.68
2019-01-16T12:41:02.842Z,9.68
2019-01-16T12:43:35.250Z,9.68
2019-01-16T12:46:13.512Z,9.70
2019-01-16T12:48:48.996Z,9.69
2019-01-16T12:51:22.716Z,9.68
2019-01-16T12:53:55.787Z,9.68
2019-01-16T12:56:39.852Z,9.70
2019-01-16T12:59:18.123Z,9.70
2019-01-16T13:01:55.980Z,9.71
2019-01-16T13:04:39.792Z,9.72
2019-01-16T13:07:11.855Z,9.44
2019-01-16T13:09:59.102Z,9.74
2019-01-16T13:12:37.080Z,9.76
2019-01-16T13:15:25.838Z,9.76
2019-01-16T13:18:00.987Z,9.75
2019-01-16T13:20:34.139Z,9.74
2019-01-16T13:23:06.177Z,9.72
2019-01-16T13:25:53.895Z,9.74
2019-01-16T13:28:41.818Z,9.73
2019-01-16T13:31:30.383Z,9.73
2019-01-16T13:34:02.490Z,9.72
2019-01-16T13:36:37.489Z,9.74
2019-01-16T13:39:19.420Z,9.74
2019-01-16T13:42:06.783Z,9.77
2019-01-16T13:44:51.132Z,9.53
2019-01-16T13:47:26.225Z,9.78
2019-01-16T13:50:04.207Z,9.79
2019-01-16T13:52:42.301Z,9.79
2019-01-16T13:55:14.407Z,9.81
2019-01-16T13:57:49.284Z,9.80
2019-01-16T14:00:36.280Z,9.80
2019-01-16T14:03:08.603Z,9.78
2019-01-16T14:05:49.426Z,9.80
2019-01-16T14:08:21.449Z,9.80
2019-01-16T14:11:01.413Z,9.79
2019-01-16T14:13:40.582Z,9.79
2019-01-16T14:16:15.845Z,9.79
2019-01-16T14:18:50.649Z,9.78
2019-01-16T14:21:40.871Z,9.78
2019-01-16T14:24:18.791Z,9.79
2019-01-16T14:27:05.879Z,9.78
2019-01-16T14:29:49.734Z,9.74
2019-01-16T14:32:29.122Z,9.74
2019-01-16T14:35:10.322Z,9.72
2019-01-16T14:37:42.386Z,9.72
2019-01-16T14:40:14.446Z,9.71
2019-01-16T14:42:46.464Z,9.70
2019-01-16T14:45:18.517Z,9.71
2019-01-16T14:48:05.354Z,9.71
2019-01-16T14:50:37.644Z,9.68
2019-01-16T14:53:19.015Z,9.66
2019-01-16T14:55:53.928Z,9.65
2019-01-16T14:58:35.049Z,9.65
2019-01-16T15:01:18.850Z,9.63
2019-01-16T15:04:09.222Z,9.61
2019-01-16T15:06:41.260Z,9.60
2019-01-16T15:09:29.508Z,9.59
2019-01-16T15:12:04.213Z,9.57
2019-01-16T15:14:48.109Z,9.55
2019-01-16T15:17:20.208Z,9.53
2019-01-16T15:20:08.211Z,9.54
2019-01-16T15:22:40.254Z,9.51
2019-01-16T15:25:12.265Z,9.49
2019-01-16T15:27:47.006Z,9.49
2019-01-16T15:30:22.234Z,9.48
2019-01-16T15:33:10.429Z,9.48
2019-01-16T15:35:58.690Z,9.47
2019-01-16T15:38:36.482Z,9.45
2019-01-16T15:41:23.434Z,9.44
2019-01-16T15:44:00.865Z,9.43
2019-01-16T15:46:41.691Z,9.45
2019-01-16T15:49:29.477Z,9.34
2019-01-16T15:52:19.624Z,9.46
2019-01-16T15:54:54.581Z,9.42
2019-01-16T15:57:41.684Z,9.42
2019-01-16T16:00:26.634Z,9.41
2019-01-16T16:02:58.651Z,9.39
2019-01-16T16:05:36.584Z,9.38
2019-01-16T16:08:20.685Z,9.36
2019-01-16T16:10:52.746Z,9.34
2019-01-16T16:13:24.765Z,9.33
2019-01-16T16:15:56.801Z,9.33
2019-01-16T16:18:31.749Z,9.33
2019-01-16T16:21:03.775Z,9.28
2019-01-16T16:23:35.814Z,9.26
2019-01-16T16:26:16.980Z,9.26
2019-01-16T16:29:00.800Z,9.23
2019-01-16T16:31:32.864Z,9.23
2019-01-16T16:34:04.904Z,9.22
2019-01-16T16:36:37.006Z,9.22
2019-01-16T16:39:12.881Z,9.22
2019-01-16T16:41:47.817Z,9.22
2019-01-16T16:44:20.384Z,9.23
2019-01-16T16:46:55.299Z,9.25
2019-01-16T16:49:43.472Z,9.25
2019-01-16T16:52:33.716Z,9.22
2019-01-16T16:55:22.565Z,9.19
2019-01-16T16:58:06.478Z,9.19
2019-01-16T17:00:38.534Z,9.19
2019-01-16T17:03:13.343Z,9.20
2019-01-16T17:06:00.449Z,9.17
2019-01-16T17:08:35.204Z,9.17
2019-01-16T17:11:13.308Z,9.16
2019-01-16T17:13:48.908Z,9.13
2019-01-16T17:16:19.042Z,9.13
2019-01-16T17:19:07.458Z,9.15
2019-01-16T17:21:42.697Z,9.14
2019-01-16T17:24:26.863Z,9.14
2019-01-16T17:27:04.823Z,9.14
2019-01-16T17:29:45.535Z,9.15
2019-01-16T17:32:33.653Z,9.13
2019-01-16T17:35:08.879Z,9.12
2019-01-16T17:37:44.043Z,9.09
2019-01-16T17:40:29.887Z,9.10
2019-01-16T17:43:07.921Z,9.09
2019-01-16T17:45:54.659Z,9.07
2019-01-16T17:48:32.424Z,9.07
2019-01-16T17:51:04.536Z,9.08
2019-01-16T17:53:42.447Z,9.06
2019-01-16T17:56:17.202Z,9.05
2019-01-16T17:58:57.984Z,9.04
2019-01-16T18:01:46.344Z,9.05
2019-01-16T18:04:18.402Z,9.02
2019-01-16T18:06:50.437Z,9.02
2019-01-16T18:09:31.464Z,9.01
2019-01-16T18:12:15.357Z,9.02
2019-01-16T18:15:03.676Z,9.03
2019-01-16T18:17:41.691Z,9.02
2019-01-16T18:20:17.758Z,9.01
2019-01-16T18:22:58.836Z,8.99
2019-01-16T18:25:39.631Z,8.97
2019-01-16T18:28:18.896Z,8.96
2019-01-16T18:30:53.898Z,8.94
2019-01-16T18:33:26.401Z,8.94
2019-01-16T18:36:07.372Z,8.91
2019-01-16T18:38:54.481Z,8.89
2019-01-16T18:41:42.415Z,8.89
2019-01-16T18:44:30.645Z,8.87
2019-01-16T18:47:02.682Z,8.87
2019-01-16T18:49:40.405Z,8.87
2019-01-16T18:52:12.431Z,8.86
2019-01-16T18:54:47.366Z,8.83
2019-01-16T18:57:34.213Z,8.83
2019-01-16T19:00:12.621Z,8.83
2019-01-16T19:02:44.638Z,8.82
2019-01-16T19:05:32.528Z,8.84
2019-01-16T19:08:20.947Z,8.83
2019-01-16T19:11:09.117Z,8.83
2019-01-16T19:13:43.803Z,8.82
2019-01-16T19:16:21.347Z,8.80
2019-01-16T19:18:56.298Z,8.80
2019-01-16T19:21:44.268Z,8.80
2019-01-16T19:24:22.041Z,8.83
2019-01-16T19:26:54.077Z,8.80
2019-01-16T19:29:38.130Z,8.80
2019-01-16T19:32:15.954Z,8.78
2019-01-16T19:34:50.899Z,8.77
2019-01-16T19:37:22.944Z,8.77
2019-01-16T19:39:57.993Z,8.77
2019-01-16T19:42:33.100Z,8.75
2019-01-16T19:45:17.256Z,8.74
2019-01-16T19:48:05.202Z,8.69
2019-01-16T19:50:40.041Z,8.69
2019-01-16T19:53:14.816Z,8.68
2019-01-16T19:56:02.939Z,8.67
2019-01-16T20:00:48.449Z,8.62
2019-01-16T20:03:40.053Z,8.60
2019-01-16T20:06:22.625Z,8.57
2019-01-16T20:09:04.544Z,8.56
2019-01-16T20:11:37.856Z,8.57
2019-01-16T20:14:10.797Z,8.55
2019-01-16T20:17:02.159Z,8.52
2019-01-16T20:19:37.866Z,8.51
2019-01-16T20:22:23.137Z,8.49
2019-01-16T20:24:59.054Z,8.45
2019-01-16T20:27:38.165Z,8.46
2019-01-16T20:30:17.811Z,8.44
2019-01-16T20:32:50.764Z,8.42
2019-01-16T20:35:26.768Z,8.42
2019-01-16T20:38:06.214Z,8.41
2019-01-16T20:40:47.878Z,8.40
2019-01-16T20:43:29.826Z,8.40
2019-01-16T20:46:02.773Z,8.39
2019-01-16T20:48:38.419Z,8.39
2019-01-16T20:51:17.486Z,8.36
2019-01-16T20:53:56.620Z,8.35
2019-01-16T20:56:29.568Z,8.35
2019-01-16T20:59:05.387Z,8.35
2019-01-16T21:01:47.343Z,8.35
2019-01-16T21:04:29.046Z,8.35
2019-01-16T21:07:02.049Z,8.32
2019-01-16T21:09:46.851Z,8.31
2019-01-16T21:12:36.234Z,8.32
2019-01-16T21:15:21.639Z,8.30
2019-01-16T21:18:06.829Z,8.30
2019-01-16T21:20:52.205Z,8.30
2019-01-16T21:23:43.365Z,8.28
2019-01-16T21:26:32.669Z,8.26
2019-01-16T21:29:14.604Z,8.25
2019-01-16T21:31:53.499Z,8.22
2019-01-16T21:34:32.598Z,8.21
2019-01-16T21:37:17.476Z,8.20
2019-01-16T21:39:59.340Z,8.18
2019-01-16T21:42:48.856Z,8.17
2019-01-16T21:45:38.044Z,8.15
2019-01-16T21:48:25.960Z,8.15
2019-01-16T21:50:58.975Z,8.14
2019-01-16T21:53:31.919Z,8.13
2019-01-16T21:56:21.169Z,8.13
2019-01-16T21:58:54.194Z,8.11
2019-01-16T22:01:33.093Z,8.10
2019-01-16T22:04:09.596Z,8.09
2019-01-16T22:06:48.426Z,8.06
2019-01-16T22:09:37.558Z,8.04
2019-01-16T22:12:13.194Z,8.02
2019-01-16T22:14:48.790Z,8.02
2019-01-16T22:17:24.690Z,8.03
2019-01-16T22:20:00.591Z,8.02
2019-01-16T22:22:39.503Z,7.99
2019-01-16T22:25:28.775Z,7.97
2019-01-16T22:28:01.740Z,7.94
2019-01-16T22:30:34.668Z,7.95
2019-01-16T22:33:07.609Z,7.95
2019-01-16T22:35:41.223Z,7.97
2019-01-16T22:38:26.535Z,7.98
2019-01-16T22:41:02.164Z,7.98
2019-01-16T22:43:35.125Z,7.96
2019-01-16T22:46:10.858Z,7.98
2019-01-16T22:48:43.810Z,7.99
2019-01-16T22:51:32.900Z,8.00
2019-01-16T22:54:05.848Z,7.99
2019-01-16T22:56:38.781Z,7.99
2019-01-16T22:59:27.861Z,8.00
2019-01-16T23:02:01.170Z,7.99
2019-01-16T23:04:50.308Z,7.99
2019-01-16T23:07:25.901Z,7.97
2019-01-16T23:09:58.828Z,7.96
2019-01-16T23:12:40.575Z,7.99
2019-01-16T23:15:19.740Z,7.98
2019-01-16T23:17:53.154Z,7.97
2019-01-16T23:20:43.016Z,7.95
2019-01-16T23:23:25.090Z,7.93
2019-01-16T23:26:10.490Z,7.92
2019-01-16T23:28:59.587Z,7.91
2019-01-16T23:31:35.513Z,7.91
2019-01-16T23:34:11.787Z,7.90
2019-01-16T23:36:53.764Z,7.90
2019-01-16T23:39:32.959Z,7.90
2019-01-16T23:42:22.325Z,7.91
2019-01-16T23:44:58.665Z,7.90
2019-01-16T23:47:50.408Z,7.90
2019-01-16T23:50:35.262Z,7.90
2019-01-16T23:53:08.205Z,7.90
2019-01-16T23:55:47.137Z,7.90
2019-01-16T23:58:36.645Z,7.89
